CheckWX is a tool to help pilots better visualize weather data.  It is not intended as a substitute for an official pre-flight weather briefing.

20:39:51 UTC

KFAT TAF
Fresno Yosemite International Airport
Fresno, California, USA
KFAT 251735Z 2518/2618 30005KT P6SM SCT200 FM260000 31012KT P6SM SCT200 FM261000 31006KT P6SM SCT200

Jun-25@
18:00 UTC

Jun-25 @ 18:00 UTC

Jun-26@
00:00 UTC

Jun-26 @ 00:00 UTC

KFAT 251735Z 2518/2618 30005KT P6SM SCT200
Wind
  • 300° at 5 KTS
Cloud Levels
  • Scattered at 20,000' AGL

Jun-26@
00:00 UTC

Jun-26 @ 00:00 UTC

Jun-26@
10:00 UTC

Jun-26 @ 10:00 UTC

FM260000 31012KT P6SM SCT200

From

From Standard forecast or significant change

Wind
  • 310° at 12 KTS
Cloud Levels
  • Scattered at 20,000' AGL

Jun-26@
10:00 UTC

Jun-26 @ 10:00 UTC

Jun-26@
18:00 UTC

Jun-26 @ 18:00 UTC

FM261000 31006KT P6SM SCT200

From

From Standard forecast or significant change

Wind
  • 310° at 6 KTS
Cloud Levels
  • Scattered at 20,000' AGL